Terminal Aerodrome Forecast
Issued by NWS

Home | Current Version | Previous Version | Text Only | Print | Product List | Glossary On
Versions: 1 2 3 4 5 6 7 8 9 10 11 12 13 14 15
196
FTUS46 KLOX 241142
TAFOXR
TAF
KOXR 241142Z 2412/2512 27008KT P6SM BKN060
     FM241700 25006KT P6SM BKN030 OVC050
     FM242100 26012KT P6SM BKN020 BKN050
     FM250500 28006KT P6SM BKN020 OVC050
     FM251000 VRB03KT P6SM BKN015 BKN050=

USA.gov is the U.S. government's official web portal to all federal, state and local government web resources and services.